Carroll Station, Nevada
Current Conditions -  °F | °C
As of 9:56 PM on Wednesday 28 Jan 2015 (Local Time) from KNFL Reporting Station
Broken Clouds Broken Clouds  
Wind Chill: 38°   Ceiling: 20000
Heat Index: 38°   Visibility: 10mi
Dew Point: 35°   Wind: 3mph
Humidity: 89%   Direction: 180°S
Pressure: 30.29"   Gusts: NA
Location:  39.5809°N, 118.333°W
Report Text: KNFL 290556Z 18003KT 10SM SCT080 BKN200 03/02 A3029 RMK AO2 SLP218 T00330017 10117 20028 51004
Loading
Personal Weather Stations






























Interactive Weather Map New forecast layout! Learn more

10-Day Weather Forecast

Advertisements
Track Severe Weather on mobile